Time;durP1;ratioP1;P1;durP2;ratioP2;P2;SDS_P1;SDS_P2;PMS_P1;PMS_P2;Temp;Humidity;BMP_temperature;BMP_pressure;BME280_temperature;BME280_humidity;BME280_pressure;Samples;Min_cycle;Max_cycle;Signal;HPM_P1;HPM_P2
2021/03/31 00:01:28;;;;;;;31.65;14.93;;;12.10;89.40;;;;;;5084431;28;20021;-74
2021/03/31 00:03:54;;;;;;;30.27;14.82;;;12.00;89.10;;;;;;5077633;28;20024;-72
2021/03/31 00:06:19;;;;;;;30.05;13.35;;;11.90;90.20;;;;;;5082908;28;20036;-73
2021/03/31 00:08:45;;;;;;;30.90;15.48;;;11.80;90.30;;;;;;5086135;28;20050;-75
2021/03/31 00:11:11;;;;;;;32.15;14.85;;;11.80;90.70;;;;;;5076933;28;20017;-73
2021/03/31 00:13:38;;;;;;;31.75;14.18;;;11.90;91.20;;;;;;5064709;28;20474;-74
2021/03/31 00:16:04;;;;;;;33.45;15.63;;;12.00;91.20;;;;;;5068239;28;20020;-76
2021/03/31 00:18:32;;;;;;;32.75;14.05;;;12.00;92.10;;;;;;5070115;28;20409;-74
2021/03/31 00:20:58;;;;;;;34.20;14.05;;;11.80;91.90;;;;;;5072386;28;20021;-76
2021/03/31 00:23:28;;;;;;;29.88;14.15;;;11.80;92.40;;;;;;5061144;28;20024;-72
2021/03/31 00:25:54;;;;;;;29.45;14.00;;;11.80;93.10;;;;;;5073186;28;20051;-74
2021/03/31 00:28:20;;;;;;;32.95;16.00;;;11.70;93.90;;;;;;5069009;28;20048;-73
2021/03/31 00:30:46;;;;;;;33.70;15.27;;;11.70;93.80;;;;;;5069776;28;20024;-72
2021/03/31 00:33:12;;;;;;;37.45;16.35;;;11.70;95.00;;;;;;5069663;28;20063;-73
2021/03/31 00:35:39;;;;;;;30.38;14.48;;;11.70;95.10;;;;;;5067009;28;20020;-73
2021/03/31 00:38:06;;;;;;;34.53;14.35;;;11.70;95.10;;;;;;5062496;28;20102;-73
2021/03/31 00:40:44;;;;;;;29.38;14.45;;;11.70;94.90;;;;;;5066259;28;20017;-72
2021/03/31 00:43:10;;;;;;;34.22;14.85;;;11.60;95.50;;;;;;5068578;28;20037;-74
2021/03/31 00:45:36;;;;;;;32.15;15.32;;;11.60;95.80;;;;;;5068781;28;20025;-74
2021/03/31 00:48:02;;;;;;;30.20;14.85;;;11.60;96.10;;;;;;5068162;28;20028;-73
2021/03/31 00:50:28;;;;;;;32.97;15.70;;;11.50;96.30;;;;;;5071818;28;20396;-73
2021/03/31 00:52:56;;;;;;;38.53;15.85;;;11.50;96.00;;;;;;5072212;28;20013;-73
2021/03/31 00:55:25;;;;;;;36.08;17.23;;;11.50;96.10;;;;;;5072779;28;20044;-74
2021/03/31 00:57:52;;;;;;;32.78;14.77;;;11.50;96.80;;;;;;5072331;28;20036;-75
2021/03/31 01:00:18;;;;;;;31.88;16.38;;;11.40;97.00;;;;;;5071937;28;20055;-74
2021/03/31 01:02:46;;;;;;;40.92;17.08;;;11.30;97.70;;;;;;5063344;28;20035;-75
2021/03/31 01:05:17;;;;;;;39.70;17.98;;;11.20;97.70;;;;;;5067840;28;20540;-75
2021/03/31 01:07:45;;;;;;;37.83;16.55;;;11.20;97.80;;;;;;5059486;28;20089;-73
2021/03/31 01:10:13;;;;;;;40.92;17.63;;;11.20;98.20;;;;;;5072708;28;20060;-74
2021/03/31 01:13:17;;;;;;;38.67;17.00;;;11.20;98.40;;;;;;5065975;28;20016;-73
2021/03/31 01:15:48;;;;;;;43.22;17.20;;;11.10;98.80;;;;;;5077133;28;20023;-75
2021/03/31 01:18:32;;;;;;;31.45;15.85;;;11.00;98.80;;;;;;5074113;28;20055;-75
2021/03/31 01:21:12;;;;;;;37.83;17.75;;;11.00;99.10;;;;;;5078415;28;20078;-74
2021/03/31 01:23:46;;;;;;;40.55;17.45;;;11.00;99.20;;;;;;5072506;28;20066;-73
2021/03/31 01:26:31;;;;;;;43.25;17.60;;;11.00;99.50;;;;;;5068668;28;20044;-73
2021/03/31 01:29:09;;;;;;;40.30;17.88;;;10.90;99.90;;;;;;5071476;28;20070;-74
2021/03/31 01:31:40;;;;;;;40.90;18.70;;;10.90;99.90;;;;;;5072017;28;20074;-74
2021/03/31 01:34:29;;;;;;;37.28;16.95;;;11.00;99.70;;;;;;5072597;28;20055;-74
2021/03/31 01:36:56;;;;;;;43.35;17.52;;;11.00;99.70;;;;;;5072112;28;20036;-73
2021/03/31 01:39:23;;;;;;;39.22;17.27;;;11.00;99.90;;;;;;5072210;28;20120;-74
2021/03/31 01:41:51;;;;;;;40.88;16.85;;;11.00;99.90;;;;;;5073765;28;20025;-74
2021/03/31 01:44:19;;;;;;;34.65;16.23;;;11.00;99.90;;;;;;5068960;28;20033;-73
2021/03/31 01:46:51;;;;;;;37.00;17.98;;;11.00;99.90;;;;;;5071065;28;20030;-73
2021/03/31 01:49:18;;;;;;;40.05;17.90;;;10.80;99.90;;;;;;5067604;28;20082;-72
2021/03/31 01:51:46;;;;;;;42.63;19.23;;;10.60;99.90;;;;;;5070740;28;20451;-74
2021/03/31 01:54:16;;;;;;;39.22;17.80;;;10.50;99.90;;;;;;5070841;28;20066;-73
2021/03/31 01:56:42;;;;;;;42.95;18.05;;;10.50;99.90;;;;;;5070882;28;20020;-73
2021/03/31 01:59:10;;;;;;;38.20;17.23;;;10.50;99.90;;;;;;5071217;28;20021;-76
2021/03/31 02:01:36;;;;;;;37.45;17.45;;;10.60;99.90;;;;;;5058164;28;20031;-73
2021/03/31 02:04:05;;;;;;;39.22;17.27;;;10.70;99.90;;;;;;5072208;28;20029;-73
2021/03/31 02:06:33;;;;;;;40.70;18.02;;;10.70;99.90;;;;;;5067328;28;20400;-73
2021/03/31 02:08:59;;;;;;;47.10;18.77;;;10.70;99.90;;;;;;5067562;28;20440;-73
2021/03/31 02:11:28;;;;;;;39.85;19.67;;;10.60;99.90;;;;;;5068718;28;20027;-74
2021/03/31 02:13:54;;;;;;;42.60;17.27;;;10.60;99.90;;;;;;5068632;28;20103;-73
2021/03/31 02:16:23;;;;;;;42.22;18.50;;;10.50;99.90;;;;;;5069726;28;20586;-76
2021/03/31 02:18:50;;;;;;;43.80;19.00;;;10.40;99.90;;;;;;5067987;28;20028;-73
2021/03/31 02:21:17;;;;;;;47.70;20.08;;;10.40;99.90;;;;;;5063876;28;20035;-73
2021/03/31 02:23:43;;;;;;;49.33;20.27;;;10.30;99.90;;;;;;5058606;28;20016;-74
2021/03/31 02:26:10;;;;;;;51.50;20.90;;;10.30;99.90;;;;;;5069641;28;20032;-72
2021/03/31 02:28:37;;;;;;;44.22;19.02;;;10.30;99.90;;;;;;5070292;28;20090;-72
2021/03/31 02:31:05;;;;;;;39.72;18.90;;;10.30;99.90;;;;;;5070937;28;20107;-73
2021/03/31 02:33:33;;;;;;;43.53;19.20;;;10.20;99.90;;;;;;5069624;28;20095;-73
2021/03/31 02:35:59;;;;;;;43.97;19.85;;;10.30;99.90;;;;;;5070447;28;20032;-74
2021/03/31 02:38:27;;;;;;;44.10;19.50;;;10.20;99.90;;;;;;5068085;28;20021;-72
2021/03/31 02:40:53;;;;;;;49.80;21.02;;;10.20;99.90;;;;;;5067806;28;20459;-74
2021/03/31 02:43:20;;;;;;;45.35;18.75;;;10.10;99.90;;;;;;5070178;28;20028;-75
2021/03/31 02:45:52;;;;;;;50.88;20.17;;;10.10;99.90;;;;;;5069497;28;20552;-75
2021/03/31 02:48:19;;;;;;;47.70;19.90;;;10.00;99.90;;;;;;5070241;28;20039;-73
2021/03/31 02:50:46;;;;;;;44.45;19.58;;;9.90;99.90;;;;;;5067108;28;20923;-75
2021/03/31 02:53:15;;;;;;;47.78;19.08;;;9.90;99.90;;;;;;5070662;28;20030;-71
2021/03/31 02:55:40;;;;;;;50.03;21.17;;;9.90;99.90;;;;;;5069935;28;20024;-74
2021/03/31 02:58:08;;;;;;;45.20;20.50;;;9.90;99.90;;;;;;5071694;28;20052;-74
2021/03/31 03:00:34;;;;;;;48.35;20.98;;;9.80;99.90;;;;;;5069874;28;20115;-74
2021/03/31 03:03:02;;;;;;;45.40;20.27;;;9.90;99.90;;;;;;5070318;28;20113;-75
2021/03/31 03:05:30;;;;;;;42.75;19.15;;;9.80;99.90;;;;;;5052612;28;20070;-73
2021/03/31 03:07:57;;;;;;;48.33;20.25;;;9.80;99.90;;;;;;5067962;28;20032;-74
2021/03/31 03:10:24;;;;;;;44.10;19.38;;;9.70;99.90;;;;;;5069997;28;20074;-73
2021/03/31 03:12:58;;;;;;;42.92;18.27;;;9.70;99.90;;;;;;5068541;28;20021;-74
2021/03/31 03:15:29;;;;;;;42.13;19.63;;;9.70;99.90;;;;;;5073778;28;20349;-72
2021/03/31 03:17:56;;;;;;;41.95;19.40;;;9.70;99.90;;;;;;5069999;28;20378;-73
2021/03/31 03:20:23;;;;;;;43.60;19.58;;;9.50;99.90;;;;;;5068128;28;20051;-75
2021/03/31 03:22:52;;;;;;;51.83;20.52;;;9.60;99.90;;;;;;5070626;28;20035;-75
2021/03/31 03:25:20;;;;;;;45.72;20.02;;;9.50;99.90;;;;;;5066255;28;20028;-74
2021/03/31 03:27:48;;;;;;;45.80;20.00;;;9.40;99.90;;;;;;5066993;28;20028;-75
2021/03/31 03:30:16;;;;;;;48.92;20.15;;;9.40;99.90;;;;;;5069001;28;20496;-75
2021/03/31 03:32:45;;;;;;;43.97;20.70;;;9.40;99.90;;;;;;5069003;28;20085;-74
2021/03/31 03:35:16;;;;;;;42.50;19.35;;;9.40;99.90;;;;;;5066405;28;20021;-75
2021/03/31 03:37:46;;;;;;;45.78;20.95;;;9.40;99.90;;;;;;5068782;28;20585;-74
2021/03/31 03:40:12;;;;;;;48.03;22.08;;;9.30;99.90;;;;;;5069295;28;20031;-73
2021/03/31 03:42:38;;;;;;;45.78;21.65;;;9.30;99.90;;;;;;5075803;28;20028;-75
2021/03/31 03:45:06;;;;;;;40.15;19.58;;;9.30;99.90;;;;;;5071483;28;20490;-73
2021/03/31 03:47:32;;;;;;;46.05;20.50;;;9.30;99.90;;;;;;5066577;28;20020;-73
2021/03/31 03:49:59;;;;;;;50.45;20.33;;;9.30;99.90;;;;;;5072659;28;20020;-73
2021/03/31 03:52:25;;;;;;;48.55;22.63;;;9.30;99.90;;;;;;5068835;28;20030;-73
2021/03/31 03:54:56;;;;;;;49.78;21.35;;;9.20;99.90;;;;;;5070018;28;20055;-74
2021/03/31 03:57:31;;;;;;;48.78;21.35;;;9.20;99.90;;;;;;5070289;28;20028;-75
2021/03/31 03:59:56;;;;;;;44.78;21.38;;;9.10;99.90;;;;;;5068544;28;20541;-76
2021/03/31 04:02:23;;;;;;;58.50;24.08;;;9.20;99.90;;;;;;5069355;28;20115;-74
2021/03/31 04:04:49;;;;;;;41.33;20.65;;;9.10;99.90;;;;;;5067187;28;20078;-75
2021/03/31 04:07:14;;;;;;;48.53;21.75;;;9.10;99.90;;;;;;5058428;28;20066;-76
2021/03/31 04:09:46;;;;;;;45.92;21.52;;;9.00;99.90;;;;;;5063704;28;20024;-72
2021/03/31 04:12:14;;;;;;;48.92;22.45;;;9.00;99.90;;;;;;5059425;28;20025;-73
2021/03/31 04:14:41;;;;;;;50.70;21.75;;;9.00;99.90;;;;;;5068803;28;20121;-75
2021/03/31 04:17:10;;;;;;;51.47;22.85;;;8.90;99.90;;;;;;5068120;28;20040;-74
2021/03/31 04:19:38;;;;;;;45.22;21.92;;;9.00;99.90;;;;;;5067463;28;20035;-75
2021/03/31 04:22:05;;;;;;;46.58;22.50;;;9.00;99.90;;;;;;5067981;28;20163;-75
2021/03/31 04:24:32;;;;;;;45.15;21.15;;;9.00;99.90;;;;;;5071588;28;20032;-75
2021/03/31 04:26:59;;;;;;;43.10;21.40;;;9.00;99.90;;;;;;5073649;28;20112;-73
2021/03/31 04:29:26;;;;;;;41.45;20.95;;;9.00;99.90;;;;;;5073195;28;20032;-74
2021/03/31 04:31:51;;;;;;;45.72;21.35;;;8.90;99.90;;;;;;5071455;28;20403;-74
2021/03/31 04:34:19;;;;;;;49.83;21.73;;;9.00;99.90;;;;;;5071722;28;20058;-74
2021/03/31 04:36:45;;;;;;;51.08;22.40;;;9.10;99.90;;;;;;5070138;28;20332;-75
2021/03/31 04:39:11;;;;;;;46.88;22.55;;;8.90;99.90;;;;;;5074037;28;20047;-76
2021/03/31 04:41:36;;;;;;;38.70;22.00;;;8.90;99.90;;;;;;5075324;28;20035;-72
2021/03/31 04:44:03;;;;;;;48.20;22.42;;;8.80;99.90;;;;;;5060482;28;20557;-75
2021/03/31 04:46:29;;;;;;;46.33;22.33;;;8.90;99.90;;;;;;5074834;28;20024;-74
2021/03/31 04:48:55;;;;;;;46.70;22.92;;;9.00;99.90;;;;;;5066973;28;20059;-74
2021/03/31 04:51:21;;;;;;;46.30;23.90;;;9.00;99.90;;;;;;5075743;28;20470;-73
2021/03/31 04:53:47;;;;;;;58.97;24.25;;;8.90;99.90;;;;;;5072076;28;20024;-73
2021/03/31 04:56:14;;;;;;;51.10;22.75;;;8.90;99.90;;;;;;5076861;28;20035;-73
2021/03/31 04:58:40;;;;;;;53.92;24.50;;;8.80;99.90;;;;;;5078083;28;20039;-76
2021/03/31 05:01:06;;;;;;;52.40;24.23;;;8.80;99.90;;;;;;5078532;28;20616;-74
2021/03/31 05:03:31;;;;;;;50.13;22.90;;;8.70;99.90;;;;;;5076194;28;20029;-74
2021/03/31 05:05:58;;;;;;;53.63;24.27;;;8.70;99.90;;;;;;5072380;28;20670;-75
2021/03/31 05:08:23;;;;;;;48.38;22.70;;;8.70;99.90;;;;;;5081312;28;20031;-74
2021/03/31 05:10:49;;;;;;;48.13;23.63;;;8.70;99.90;;;;;;5080547;28;20033;-73
2021/03/31 05:13:15;;;;;;;54.97;23.05;;;8.70;99.90;;;;;;5079734;28;20039;-73
2021/03/31 05:15:41;;;;;;;50.25;24.67;;;8.60;99.90;;;;;;5078738;28;20054;-76
2021/03/31 05:18:09;;;;;;;56.00;24.35;;;8.70;99.90;;;;;;5075885;28;20044;-72
2021/03/31 05:20:35;;;;;;;51.33;24.73;;;8.70;99.90;;;;;;5070549;28;20035;-73
2021/03/31 05:23:01;;;;;;;48.50;24.10;;;8.60;99.90;;;;;;5067192;28;20025;-74
2021/03/31 05:25:27;;;;;;;52.00;24.38;;;8.60;99.90;;;;;;5070848;28;20450;-73
2021/03/31 05:27:54;;;;;;;59.17;23.73;;;8.60;99.90;;;;;;5068442;28;20028;-75
2021/03/31 05:30:21;;;;;;;52.63;23.30;;;8.60;99.90;;;;;;5068599;28;20023;-72
2021/03/31 05:32:46;;;;;;;51.67;23.73;;;8.60;99.90;;;;;;5081196;28;20124;-74
2021/03/31 05:35:12;;;;;;;55.42;24.90;;;8.60;99.90;;;;;;5072041;28;20056;-73
2021/03/31 05:37:41;;;;;;;56.55;24.13;;;8.70;99.90;;;;;;5076475;28;20029;-73
2021/03/31 05:40:07;;;;;;;54.33;24.45;;;8.60;99.90;;;;;;5079572;28;20027;-75
2021/03/31 05:42:36;;;;;;;56.30;26.15;;;8.60;99.90;;;;;;5079452;28;20028;-76
2021/03/31 05:45:08;;;;;;;52.38;24.33;;;8.60;99.90;;;;;;5078203;28;20076;-74
2021/03/31 05:47:36;;;;;;;51.53;23.15;;;8.60;99.90;;;;;;5075327;28;20017;-74
2021/03/31 05:50:05;;;;;;;56.42;24.60;;;8.60;99.90;;;;;;5073844;28;20388;-73
2021/03/31 05:52:32;;;;;;;50.13;24.33;;;8.60;99.90;;;;;;5075177;28;20481;-74
2021/03/31 05:55:01;;;;;;;52.90;23.52;;;8.70;99.90;;;;;;5081439;28;20047;-76
2021/03/31 05:57:30;;;;;;;51.08;23.98;;;8.70;99.90;;;;;;5075809;28;20024;-72
2021/03/31 05:59:56;;;;;;;57.42;24.17;;;8.70;99.90;;;;;;5070818;28;20557;-72
2021/03/31 06:02:21;;;;;;;53.92;24.48;;;8.70;99.90;;;;;;5070437;28;20033;-73
2021/03/31 06:04:50;;;;;;;56.17;22.70;;;8.80;99.90;;;;;;5070316;28;20029;-75
2021/03/31 06:07:17;;;;;;;50.65;23.85;;;8.80;99.90;;;;;;5068721;28;20025;-73
2021/03/31 06:10:01;;;;;;;56.55;25.40;;;8.90;99.90;;;;;;5067399;28;20021;-72
2021/03/31 06:12:28;;;;;;;48.65;22.63;;;8.90;99.90;;;;;;5064002;28;20031;-73
2021/03/31 06:14:54;;;;;;;62.47;24.83;;;9.00;99.90;;;;;;5067574;28;20476;-74
2021/03/31 06:17:19;;;;;;;58.53;25.30;;;9.10;99.90;;;;;;5061625;28;20039;-74
2021/03/31 06:19:46;;;;;;;48.22;24.90;;;9.20;99.90;;;;;;5073782;28;20104;-73
2021/03/31 06:22:28;;;;;;;53.58;26.10;;;9.20;99.90;;;;;;5074403;28;20020;-75
2021/03/31 06:25:08;;;;;;;56.35;24.98;;;9.30;99.90;;;;;;5075377;28;20109;-74
2021/03/31 06:27:33;;;;;;;50.28;24.85;;;9.40;99.90;;;;;;5072781;28;20090;-73
2021/03/31 06:30:04;;;;;;;50.22;24.27;;;9.50;99.90;;;;;;5071195;28;20048;-74
2021/03/31 06:32:38;;;;;;;50.35;23.52;;;9.60;99.90;;;;;;5071389;28;20051;-75
2021/03/31 06:35:05;;;;;;;47.85;24.48;;;9.70;99.90;;;;;;5072380;28;20041;-75
2021/03/31 06:37:36;;;;;;;53.88;23.50;;;9.70;99.90;;;;;;5072474;28;20048;-73
2021/03/31 06:40:07;;;;;;;45.33;23.85;;;9.80;99.90;;;;;;5072832;28;20116;-72
2021/03/31 06:42:38;;;;;;;49.95;23.67;;;9.90;99.90;;;;;;5060328;28;20029;-74
2021/03/31 06:45:18;;;;;;;49.25;23.88;;;10.00;99.90;;;;;;5070892;28;20088;-73
2021/03/31 06:50:12;;;;;;;47.67;22.20;;;10.30;99.90;;;;;;5071104;28;20032;-74
2021/03/31 06:52:58;;;;;;;45.42;23.90;;;10.40;99.90;;;;;;5071716;28;20457;-76
2021/03/31 06:55:26;;;;;;;50.25;23.02;;;10.60;99.90;;;;;;5070974;28;20016;-74
2021/03/31 06:57:54;;;;;;;45.35;22.02;;;10.80;99.90;;;;;;5071490;28;20016;-74
2021/03/31 07:00:39;;;;;;;53.42;24.23;;;10.90;99.90;;;;;;5071614;28;20071;-75
2021/03/31 07:03:07;;;;;;;44.17;21.75;;;11.10;99.90;;;;;;5058645;28;20023;-77
2021/03/31 07:05:39;;;;;;;53.72;22.60;;;11.30;99.90;;;;;;5071300;28;20029;-74
2021/03/31 07:08:15;;;;;;;51.22;22.83;;;11.40;99.90;;;;;;5057324;28;20047;-76
2021/03/31 07:10:43;;;;;;;39.92;20.85;;;11.50;99.90;;;;;;5072161;28;20025;-73
2021/03/31 07:13:24;;;;;;;39.72;20.55;;;11.70;99.90;;;;;;5070958;28;20043;-75
2021/03/31 07:15:51;;;;;;;43.00;22.33;;;11.80;99.90;;;;;;5050749;28;20155;-76
2021/03/31 07:18:20;;;;;;;43.45;20.88;;;11.90;99.90;;;;;;5065937;28;20028;-73
2021/03/31 07:20:46;;;;;;;43.65;21.65;;;12.00;99.90;;;;;;5072537;28;20023;-73
2021/03/31 07:23:12;;;;;;;47.08;21.77;;;12.10;99.90;;;;;;5072623;28;20021;-72
2021/03/31 07:25:38;;;;;;;46.75;22.05;;;12.20;99.90;;;;;;5061574;28;20024;-73
2021/03/31 07:28:05;;;;;;;49.67;22.63;;;12.30;99.90;;;;;;5071344;28;20104;-74
2021/03/31 07:30:31;;;;;;;41.70;21.05;;;12.50;99.90;;;;;;5052003;28;20021;-75
2021/03/31 07:33:01;;;;;;;38.17;20.55;;;12.60;99.90;;;;;;5063060;28;20031;-76
2021/03/31 07:35:34;;;;;;;41.45;21.88;;;12.70;99.90;;;;;;5070008;28;20016;-76
2021/03/31 07:38:07;;;;;;;43.53;20.95;;;12.90;99.90;;;;;;5070755;28;20028;-74
2021/03/31 07:40:38;;;;;;;52.97;24.30;;;13.00;99.90;;;;;;5070183;28;20020;-73
2021/03/31 07:43:10;;;;;;;51.05;22.77;;;13.10;99.90;;;;;;5069682;28;20028;-73
2021/03/31 07:45:48;;;;;;;43.30;22.67;;;13.20;99.90;;;;;;5069998;28;20431;-74
2021/03/31 07:48:14;;;;;;;42.15;23.02;;;13.30;99.90;;;;;;5071570;28;20028;-74
2021/03/31 07:50:40;;;;;;;45.05;23.63;;;13.40;99.90;;;;;;5070385;28;20035;-73
2021/03/31 07:53:07;;;;;;;50.92;24.25;;;13.60;99.90;;;;;;5070854;28;20024;-73
2021/03/31 07:55:49;;;;;;;49.78;24.25;;;13.80;99.90;;;;;;5071357;28;20043;-73
2021/03/31 07:58:25;;;;;;;51.27;24.10;;;14.00;99.90;;;;;;5074254;28;20024;-71
2021/03/31 08:01:15;;;;;;;48.63;24.75;;;14.10;99.90;;;;;;5071581;28;20052;-73
2021/03/31 08:03:41;;;;;;;48.42;24.23;;;14.20;98.90;;;;;;5075022;28;20036;-73
2021/03/31 08:06:11;;;;;;;46.42;24.20;;;14.20;98.40;;;;;;5073689;28;20033;-72
2021/03/31 08:08:46;;;;;;;40.33;23.13;;;14.50;98.40;;;;;;5062460;28;20029;-73
2021/03/31 08:11:43;;;;;;;46.47;24.40;;;14.70;98.20;;;;;;5068374;28;20021;-73
2021/03/31 08:14:13;;;;;;;52.97;23.80;;;14.80;97.70;;;;;;5069538;28;20020;-73
2021/03/31 08:16:47;;;;;;;63.72;25.67;;;15.10;96.40;;;;;;5059131;28;20168;-73
2021/03/31 08:19:17;;;;;;;48.30;24.42;;;15.30;96.40;;;;;;5066705;28;20017;-73
2021/03/31 08:21:45;;;;;;;54.47;24.35;;;15.50;95.20;;;;;;5070555;28;20421;-72
2021/03/31 08:24:11;;;;;;;44.33;23.42;;;15.60;94.90;;;;;;5063555;28;20021;-73
2021/03/31 08:26:43;;;;;;;100.25;27.33;;;15.80;93.80;;;;;;5072947;28;20025;-72
2021/03/31 08:29:17;;;;;;;58.77;24.67;;;15.90;92.90;;;;;;5073677;28;20023;-73
2021/03/31 08:31:48;;;;;;;49.08;25.10;;;16.10;92.80;;;;;;5073258;28;20336;-73
2021/03/31 08:34:15;;;;;;;52.15;24.63;;;16.30;93.00;;;;;;5075428;28;20024;-72
2021/03/31 08:36:43;;;;;;;50.55;22.83;;;16.50;91.60;;;;;;5074559;28;20565;-73
2021/03/31 08:39:11;;;;;;;46.17;22.60;;;16.70;91.00;;;;;;5075450;28;20599;-73
2021/03/31 08:41:39;;;;;;;43.15;22.75;;;17.10;90.90;;;;;;5075819;28;20048;-74
2021/03/31 08:44:20;;;;;;;47.00;24.05;;;17.50;88.40;;;;;;5074794;28;20024;-73
2021/03/31 08:46:47;;;;;;;42.08;22.63;;;18.00;88.50;;;;;;5073657;28;20048;-73
2021/03/31 08:49:27;;;;;;;41.13;24.00;;;18.40;85.20;;;;;;5071898;28;20024;-73
2021/03/31 08:51:55;;;;;;;43.33;22.95;;;18.90;82.10;;;;;;5072513;28;20047;-74
2021/03/31 08:54:39;;;;;;;51.10;25.35;;;19.30;82.70;;;;;;5073822;28;20127;-73
2021/03/31 08:57:08;;;;;;;56.10;25.08;;;19.60;81.70;;;;;;5074362;28;20025;-73
2021/03/31 08:59:39;;;;;;;45.90;25.13;;;19.80;79.40;;;;;;5063000;28;20126;-75
2021/03/31 09:02:06;;;;;;;43.88;23.02;;;19.70;77.80;;;;;;5080781;28;20028;-75
2021/03/31 09:04:33;;;;;;;54.38;24.77;;;20.00;75.20;;;;;;5073928;28;20289;-73
2021/03/31 09:07:00;;;;;;;55.00;25.70;;;20.10;74.60;;;;;;5074614;28;20443;-74
2021/03/31 09:09:35;;;;;;;90.85;29.23;;;20.40;73.30;;;;;;5071898;28;20013;-75
2021/03/31 09:12:11;;;;;;;89.05;28.25;;;20.90;72.90;;;;;;5065216;28;20013;-73
2021/03/31 09:14:46;;;;;;;49.53;22.55;;;21.20;70.60;;;;;;5073159;28;20017;-73
2021/03/31 09:17:21;;;;;;;52.65;24.38;;;21.30;69.40;;;;;;5073313;28;20484;-74
2021/03/31 09:19:56;;;;;;;68.30;25.02;;;21.40;67.90;;;;;;5062613;28;20052;-75
2021/03/31 09:22:23;;;;;;;282.60;43.95;;;21.70;66.60;;;;;;5054601;28;20033;-72
2021/03/31 09:24:51;;;;;;;64.63;24.98;;;21.50;66.10;;;;;;5057289;28;20401;-73
2021/03/31 09:27:22;;;;;;;55.05;25.23;;;21.70;66.20;;;;;;5080646;28;20021;-72
2021/03/31 09:29:51;;;;;;;45.03;23.80;;;21.30;64.80;;;;;;5083744;28;20100;-73
2021/03/31 09:32:37;;;;;;;63.13;27.33;;;21.60;64.20;;;;;;5065882;28;20055;-74
2021/03/31 09:35:05;;;;;;;251.90;40.35;;;21.90;63.50;;;;;;5076188;28;20051;-72
2021/03/31 09:37:41;;;;;;;58.55;25.40;;;21.70;63.40;;;;;;5076217;28;20143;-74
2021/03/31 09:40:08;;;;;;;52.95;24.65;;;21.50;63.60;;;;;;5061160;28;20028;-74
2021/03/31 09:42:36;;;;;;;49.67;26.02;;;21.70;63.60;;;;;;5076510;28;20027;-73
2021/03/31 09:45:07;;;;;;;52.13;24.13;;;21.80;63.20;;;;;;5077027;28;20052;-71
2021/03/31 09:47:37;;;;;;;55.30;27.48;;;22.10;61.30;;;;;;5069643;28;20392;-74
2021/03/31 09:50:08;;;;;;;83.25;28.08;;;22.40;62.00;;;;;;5056846;28;20029;-73
2021/03/31 09:52:33;;;;;;;49.63;24.58;;;22.40;62.10;;;;;;5073931;28;20020;-74
2021/03/31 09:55:09;;;;;;;48.20;25.38;;;22.70;60.10;;;;;;5073634;28;20032;-72
2021/03/31 09:57:40;;;;;;;43.75;25.20;;;22.80;59.60;;;;;;5059899;28;20044;-71
2021/03/31 10:00:10;;;;;;;53.65;25.02;;;22.80;60.80;;;;;;5074000;28;20581;-73
2021/03/31 10:02:37;;;;;;;51.63;24.75;;;22.50;61.10;;;;;;5073475;28;20024;-72
2021/03/31 10:05:22;;;;;;;51.40;26.75;;;22.70;60.00;;;;;;5073116;28;20034;-73
2021/03/31 10:07:59;;;;;;;52.92;26.88;;;22.70;58.30;;;;;;5073278;28;20024;-72
2021/03/31 10:10:42;;;;;;;59.30;25.27;;;22.80;58.10;;;;;;5073243;28;20016;-73
2021/03/31 10:13:09;;;;;;;58.75;25.08;;;22.70;59.10;;;;;;5077665;28;20016;-73
2021/03/31 10:15:35;;;;;;;67.72;27.00;;;22.70;59.70;;;;;;5058157;28;20016;-73
2021/03/31 10:18:02;;;;;;;80.88;29.10;;;22.70;59.40;;;;;;5073112;28;20429;-73
2021/03/31 10:20:34;;;;;;;61.72;26.88;;;22.90;59.30;;;;;;5072401;28;20072;-74
2021/03/31 10:23:00;;;;;;;56.92;26.48;;;22.50;58.60;;;;;;5071143;28;20028;-72
2021/03/31 10:25:30;;;;;;;60.08;28.17;;;22.30;59.80;;;;;;5071844;28;20031;-73
2021/03/31 10:27:58;;;;;;;56.15;26.27;;;22.30;59.50;;;;;;5070821;28;20044;-74
2021/03/31 10:30:28;;;;;;;62.80;28.20;;;22.10;60.40;;;;;;5072190;28;20044;-72
2021/03/31 10:32:54;;;;;;;54.85;26.73;;;21.80;60.80;;;;;;5071813;28;20093;-71
2021/03/31 10:35:39;;;;;;;57.10;28.23;;;21.90;59.70;;;;;;5063095;28;20056;-74
2021/03/31 10:38:07;;;;;;;63.08;28.48;;;22.00;59.30;;;;;;5063624;28;20080;-71
2021/03/31 10:41:08;;;;;;;58.70;28.10;;;22.10;58.80;;;;;;5069691;28;20027;-74
2021/03/31 10:49:30;;;;;;;91.03;31.08;;;22.70;58.40;;;;;;5070086;28;20145;-72
2021/03/31 10:52:02;;;;;;;60.58;28.20;;;23.00;58.80;;;;;;5070353;28;20556;-72
2021/03/31 10:54:29;;;;;;;55.88;26.88;;;22.80;56.20;;;;;;5064543;28;20601;-72
2021/03/31 10:57:04;;;;;;;57.28;25.38;;;22.90;57.40;;;;;;5071136;28;20035;-72
2021/03/31 10:59:32;;;;;;;54.90;26.17;;;23.10;55.40;;;;;;5062970;28;20029;-73
2021/03/31 11:01:57;;;;;;;54.10;25.65;;;23.20;55.20;;;;;;5071502;28;20111;-73
2021/03/31 11:04:23;;;;;;;58.63;28.58;;;23.40;53.80;;;;;;5081470;28;20028;-75
2021/03/31 11:06:49;;;;;;;51.45;26.08;;;23.20;55.50;;;;;;5066570;28;20047;-72
2021/03/31 11:09:14;;;;;;;47.08;23.98;;;22.60;56.60;;;;;;5064526;28;20470;-72
2021/03/31 11:11:40;;;;;;;46.80;22.02;;;22.70;56.40;;;;;;5068231;28;20020;-72
2021/03/31 11:14:06;;;;;;;52.08;23.55;;;22.60;55.10;;;;;;5068774;28;20020;-72
2021/03/31 11:16:33;;;;;;;53.85;21.15;;;22.50;55.20;;;;;;5069845;28;20020;-75
2021/03/31 11:19:06;;;;;;;46.15;22.55;;;22.40;55.40;;;;;;5068008;28;20388;-73
2021/03/31 11:26:59;;;;;;;53.03;25.65;;;22.80;55.40;;;;;;5071986;28;20244;-73
2021/03/31 11:29:25;;;;;;;46.70;21.83;;;23.00;53.70;;;;;;5073606;28;20020;-73
2021/03/31 11:31:51;;;;;;;56.13;22.33;;;23.20;53.30;;;;;;5069032;28;20126;-72
2021/03/31 11:34:17;;;;;;;47.63;24.15;;;23.40;52.90;;;;;;5069210;28;20025;-75
2021/03/31 11:36:42;;;;;;;55.25;24.48;;;23.60;52.90;;;;;;5068109;28;20444;-77
2021/03/31 11:39:08;;;;;;;49.40;21.98;;;23.40;51.50;;;;;;5069446;28;20016;-72
2021/03/31 11:41:35;;;;;;;164.90;28.90;;;23.60;52.20;;;;;;5068088;28;20544;-73
2021/03/31 11:44:00;;;;;;;112.20;27.98;;;24.40;50.20;;;;;;5068340;28;20024;-75
2021/03/31 11:46:26;;;;;;;40.05;18.15;;;25.00;49.50;;;;;;5068658;28;20017;-76
2021/03/31 11:48:51;;;;;;;39.17;18.05;;;25.30;47.50;;;;;;5069472;28;20158;-74
2021/03/31 11:51:17;;;;;;;35.30;17.42;;;25.20;47.60;;;;;;5061759;28;20029;-75
2021/03/31 11:53:44;;;;;;;34.13;17.80;;;25.20;46.20;;;;;;5049507;28;20423;-75
2021/03/31 11:56:09;;;;;;;42.45;19.17;;;25.60;47.00;;;;;;5063177;28;20409;-72
2021/03/31 11:58:35;;;;;;;31.58;15.65;;;25.60;46.90;;;;;;5063442;28;20430;-72
2021/03/31 12:01:02;;;;;;;35.45;17.45;;;24.90;46.10;;;;;;5063714;28;20492;-73
2021/03/31 12:03:28;;;;;;;39.85;19.67;;;24.30;47.20;;;;;;5069262;28;20454;-74
2021/03/31 12:05:53;;;;;;;39.72;18.50;;;24.60;48.00;;;;;;5067857;28;21598;-72
2021/03/31 12:08:19;;;;;;;34.45;16.13;;;25.20;47.10;;;;;;5070519;28;20033;-74
2021/03/31 12:10:45;;;;;;;33.58;16.33;;;25.60;45.20;;;;;;5069472;28;20312;-72
2021/03/31 12:13:10;;;;;;;28.98;15.35;;;25.50;44.80;;;;;;5050321;28;20036;-73
2021/03/31 12:15:36;;;;;;;34.17;17.65;;;25.60;45.20;;;;;;5064812;28;20096;-72
2021/03/31 12:18:02;;;;;;;49.40;18.42;;;25.60;44.40;;;;;;5086551;28;20024;-73
2021/03/31 12:20:27;;;;;;;68.38;18.35;;;25.70;44.20;;;;;;5070232;28;20021;-73
2021/03/31 12:22:53;;;;;;;27.75;13.60;;;25.60;43.50;;;;;;5070897;28;20059;-72
2021/03/31 12:25:21;;;;;;;32.65;13.30;;;25.40;42.20;;;;;;5068734;28;20021;-73
2021/03/31 12:27:49;;;;;;;27.10;13.48;;;25.40;41.70;;;;;;5070963;28;20484;-74
2021/03/31 12:30:15;;;;;;;121.05;19.67;;;25.90;42.00;;;;;;5054067;28;20031;-72
2021/03/31 12:32:41;;;;;;;30.27;14.90;;;26.20;41.20;;;;;;5063079;28;20024;-74
2021/03/31 12:35:08;;;;;;;25.63;13.05;;;25.40;41.50;;;;;;5076298;28;20445;-73
2021/03/31 12:37:35;;;;;;;28.10;12.55;;;25.20;41.50;;;;;;5084856;28;20016;-72
2021/03/31 12:40:01;;;;;;;28.63;14.23;;;25.60;40.00;;;;;;5080654;28;20028;-72
2021/03/31 12:42:26;;;;;;;51.53;17.25;;;25.90;40.10;;;;;;5076460;28;20115;-74
2021/03/31 12:44:52;;;;;;;36.90;16.52;;;26.30;41.00;;;;;;5070382;28;20070;-72
2021/03/31 12:47:20;;;;;;;36.53;16.77;;;26.30;41.10;;;;;;5071888;28;20099;-73
2021/03/31 12:49:50;;;;;;;34.28;16.33;;;26.60;41.50;;;;;;5073017;28;20025;-73
2021/03/31 12:52:23;;;;;;;40.53;15.45;;;25.90;40.20;;;;;;5072844;28;20028;-73
2021/03/31 12:55:01;;;;;;;54.80;18.15;;;25.70;41.60;;;;;;5074839;28;20035;-73